Time;durP1;ratioP1;P1;durP2;ratioP2;P2;SDS_P1;SDS_P2;PMS_P1;PMS_P2;Temp;Humidity;BMP_temperature;BMP_pressure;BME280_temperature;BME280_humidity;BME280_pressure;Samples;Min_cycle;Max_cycle;Signal;HPM_P1;HPM_P2
2023/06/28 00:01:51;;;;;;;7.00;5.00;;;21.70;99.90;;;;;;4916945;28;20431;-72
2023/06/28 00:04:17;;;;;;;7.57;5.05;;;21.70;99.90;;;;;;4925517;28;20454;-72
2023/06/28 00:06:43;;;;;;;9.00;5.05;;;21.60;99.90;;;;;;4918244;28;20451;-72
2023/06/28 00:09:09;;;;;;;7.43;5.70;;;21.60;99.90;;;;;;4920788;28;21473;-72
2023/06/28 00:11:35;;;;;;;7.35;5.35;;;21.60;99.90;;;;;;4923644;28;20939;-72
2023/06/28 00:14:02;;;;;;;7.50;5.45;;;21.60;99.90;;;;;;4927012;28;20439;-72
2023/06/28 00:16:28;;;;;;;7.68;5.38;;;21.60;99.90;;;;;;4926759;28;20535;-73
2023/06/28 00:19:00;;;;;;;8.75;5.07;;;21.50;99.90;;;;;;4925118;28;20431;-72
2023/06/28 00:21:27;;;;;;;8.63;5.55;;;21.50;99.90;;;;;;4904449;28;20432;-73
2023/06/28 00:23:54;;;;;;;8.77;4.97;;;21.50;99.90;;;;;;4920638;28;20432;-73
2023/06/28 00:26:21;;;;;;;6.88;5.25;;;21.50;99.90;;;;;;4921787;28;20429;-74
2023/06/28 00:28:48;;;;;;;7.38;5.25;;;21.50;99.90;;;;;;4927840;28;20422;-73
2023/06/28 00:31:14;;;;;;;8.25;4.97;;;21.60;99.90;;;;;;4925566;28;20432;-73
2023/06/28 00:33:41;;;;;;;6.28;5.15;;;21.60;99.90;;;;;;4931528;28;20416;-73
2023/06/28 00:36:07;;;;;;;7.27;5.40;;;21.60;99.90;;;;;;4921496;28;20535;-73
2023/06/28 00:38:34;;;;;;;8.20;4.90;;;21.60;99.90;;;;;;4938906;28;20418;-73
2023/06/28 00:41:01;;;;;;;8.57;4.90;;;21.60;99.90;;;;;;4942547;28;20489;-73
2023/06/28 00:43:27;;;;;;;7.07;5.05;;;21.60;99.90;;;;;;4952352;28;20524;-73
2023/06/28 00:45:53;;;;;;;6.37;5.10;;;21.60;99.90;;;;;;4915626;28;21140;-73
2023/06/28 00:48:20;;;;;;;6.18;4.80;;;21.60;99.90;;;;;;4911256;28;20427;-73
2023/06/28 00:50:47;;;;;;;9.40;5.30;;;21.60;99.90;;;;;;4923919;28;20823;-73
2023/06/28 00:53:16;;;;;;;5.55;4.80;;;21.50;99.90;;;;;;4925143;28;20425;-73
2023/06/28 00:55:43;;;;;;;7.07;5.50;;;21.50;99.90;;;;;;4928430;28;20942;-73
2023/06/28 00:58:09;;;;;;;7.57;5.40;;;21.50;99.90;;;;;;4928001;28;22928;-73
2023/06/28 01:04:17;;;;;;;6.47;5.13;;;21.50;99.90;;;;;;4921290;28;20467;-73
2023/06/28 01:06:51;;;;;;;9.50;5.22;;;21.50;99.90;;;;;;4925153;28;20835;-73
2023/06/28 01:09:24;;;;;;;9.50;5.03;;;21.40;99.90;;;;;;4920570;28;20444;-73
2023/06/28 01:15:31;;;;;;;5.95;4.80;;;21.40;99.90;;;;;;4921027;28;20427;-73
2023/06/28 01:18:00;;;;;;;7.57;5.25;;;21.40;99.90;;;;;;4928196;28;20459;-73
2023/06/28 01:20:30;;;;;;;6.45;5.07;;;21.40;99.90;;;;;;4923799;28;20422;-73
2023/06/28 01:22:57;;;;;;;6.88;5.13;;;21.40;99.90;;;;;;4921711;28;20951;-73
2023/06/28 01:25:23;;;;;;;8.93;5.47;;;21.40;99.90;;;;;;4929582;28;20501;-72
2023/06/28 01:27:51;;;;;;;6.57;5.28;;;21.30;99.90;;;;;;4918548;28;20435;-73
2023/06/28 01:30:23;;;;;;;7.88;5.38;;;21.20;99.90;;;;;;4923880;28;20946;-72
2023/06/28 01:32:50;;;;;;;6.45;5.25;;;21.20;99.90;;;;;;4949533;28;20423;-72
2023/06/28 01:35:16;;;;;;;7.15;5.07;;;21.30;99.90;;;;;;4948443;28;20566;-72
2023/06/28 01:37:44;;;;;;;9.15;5.32;;;21.20;99.90;;;;;;4921344;28;21049;-72
2023/06/28 01:40:12;;;;;;;6.68;4.82;;;21.20;99.90;;;;;;4923416;28;20498;-73
2023/06/28 01:42:40;;;;;;;8.45;5.45;;;21.30;99.90;;;;;;4920255;28;23538;-72
2023/06/28 01:45:07;;;;;;;7.13;5.45;;;21.30;99.90;;;;;;4945896;28;20430;-73
2023/06/28 01:47:33;;;;;;;7.10;5.40;;;21.30;99.90;;;;;;4924547;28;20440;-73
2023/06/28 01:50:00;;;;;;;7.10;5.38;;;21.20;99.90;;;;;;4920917;28;20486;-73
2023/06/28 01:52:26;;;;;;;6.68;5.15;;;21.20;99.90;;;;;;4924901;28;20427;-74
2023/06/28 01:54:53;;;;;;;6.80;5.10;;;21.20;99.90;;;;;;4919480;28;20485;-73
2023/06/28 01:57:19;;;;;;;8.60;5.40;;;21.20;99.90;;;;;;4923675;28;20432;-73
2023/06/28 01:59:45;;;;;;;5.70;4.88;;;21.20;99.90;;;;;;4920033;28;20427;-73
2023/06/28 02:02:11;;;;;;;7.55;5.50;;;21.20;99.90;;;;;;4933257;28;20439;-73
2023/06/28 02:04:38;;;;;;;7.20;5.20;;;21.20;99.90;;;;;;4930092;28;20997;-73
2023/06/28 02:07:04;;;;;;;6.97;5.22;;;21.20;99.90;;;;;;4918242;28;21059;-73
2023/06/28 02:09:30;;;;;;;7.57;5.05;;;21.20;99.90;;;;;;4916587;28;20436;-73
2023/06/28 02:11:56;;;;;;;8.80;4.93;;;21.20;99.90;;;;;;4919442;28;20986;-72
2023/06/28 02:14:22;;;;;;;7.35;5.00;;;21.20;99.90;;;;;;4920002;28;20922;-72
2023/06/28 02:16:49;;;;;;;7.10;4.93;;;21.20;99.90;;;;;;4908946;28;20424;-73
2023/06/28 02:19:16;;;;;;;7.68;4.90;;;21.20;99.90;;;;;;4909741;28;20419;-72
2023/06/28 02:21:42;;;;;;;8.07;5.05;;;21.20;99.90;;;;;;4923463;28;20439;-73
2023/06/28 02:24:08;;;;;;;9.30;5.07;;;21.20;99.90;;;;;;4919152;28;20529;-72
2023/06/28 02:26:35;;;;;;;6.85;4.90;;;21.30;99.90;;;;;;4923215;28;20450;-72
2023/06/28 02:29:02;;;;;;;10.05;5.10;;;21.30;99.90;;;;;;4946114;28;20420;-72
2023/06/28 02:31:28;;;;;;;7.53;5.40;;;21.30;99.90;;;;;;4922555;28;20524;-72
2023/06/28 02:33:54;;;;;;;6.80;5.10;;;21.30;99.90;;;;;;4949496;28;20420;-72
2023/06/28 02:36:20;;;;;;;7.38;4.75;;;21.40;99.90;;;;;;4924130;28;20473;-72
2023/06/28 02:38:46;;;;;;;7.10;5.25;;;21.40;99.90;;;;;;4928321;28;20438;-72
2023/06/28 02:41:13;;;;;;;7.28;4.68;;;21.40;99.90;;;;;;4942691;28;20933;-72
2023/06/28 02:43:39;;;;;;;7.32;4.90;;;21.40;99.90;;;;;;4927708;28;21039;-72
2023/06/28 02:46:05;;;;;;;7.47;4.80;;;21.50;99.90;;;;;;4921859;28;20794;-72
2023/06/28 02:48:32;;;;;;;7.93;5.38;;;21.50;99.90;;;;;;4915438;28;20883;-72
2023/06/28 02:50:58;;;;;;;9.00;5.47;;;21.50;99.90;;;;;;4921578;28;20435;-74
2023/06/28 02:53:24;;;;;;;6.65;5.10;;;21.60;99.90;;;;;;4921955;28;20427;-74
2023/06/28 02:55:50;;;;;;;8.60;5.55;;;21.70;99.90;;;;;;4917661;28;20520;-73
2023/06/28 02:58:16;;;;;;;8.10;5.20;;;21.70;99.90;;;;;;4920586;28;20438;-74
2023/06/28 03:00:46;;;;;;;8.00;4.97;;;21.70;99.90;;;;;;4922769;28;20427;-74
2023/06/28 03:03:13;;;;;;;10.93;5.35;;;21.60;99.90;;;;;;4934796;28;20419;-74
2023/06/28 03:05:39;;;;;;;7.13;4.85;;;21.70;99.90;;;;;;4922477;28;20432;-73
2023/06/28 03:08:05;;;;;;;8.07;5.07;;;21.70;99.90;;;;;;4921066;28;20435;-73
2023/06/28 03:10:32;;;;;;;7.50;4.60;;;21.70;99.90;;;;;;4924596;28;20430;-73
2023/06/28 03:12:59;;;;;;;9.55;4.85;;;21.80;99.90;;;;;;4987206;28;20510;-74
2023/06/28 03:15:25;;;;;;;8.13;5.10;;;21.70;99.90;;;;;;4928140;28;20540;-74
2023/06/28 03:17:52;;;;;;;7.90;4.95;;;21.70;99.90;;;;;;4947779;28;20952;-74
2023/06/28 03:20:20;;;;;;;6.97;4.93;;;21.80;99.90;;;;;;4923035;28;21078;-74
2023/06/28 03:22:46;;;;;;;7.97;4.82;;;21.80;99.90;;;;;;4902748;28;20479;-74
2023/06/28 03:25:12;;;;;;;7.60;4.90;;;21.80;99.90;;;;;;4926062;28;20488;-73
2023/06/28 03:27:38;;;;;;;6.53;4.95;;;21.80;99.90;;;;;;4920746;28;20442;-73
2023/06/28 03:30:06;;;;;;;7.70;4.80;;;21.80;99.90;;;;;;4922011;28;20436;-73
2023/06/28 03:32:32;;;;;;;8.10;5.05;;;21.80;99.90;;;;;;4943579;28;20431;-73
2023/06/28 03:34:59;;;;;;;13.10;4.90;;;21.80;99.90;;;;;;4944913;28;20466;-73
2023/06/28 03:37:25;;;;;;;10.90;5.03;;;21.80;99.90;;;;;;4937262;28;20513;-73
2023/06/28 03:39:51;;;;;;;14.53;5.10;;;21.90;99.90;;;;;;4925036;28;20445;-73
2023/06/28 03:42:18;;;;;;;7.57;4.97;;;21.90;99.90;;;;;;4913576;28;20437;-73
2023/06/28 03:44:44;;;;;;;7.45;4.57;;;21.90;99.90;;;;;;4924247;28;21302;-73
2023/06/28 03:47:10;;;;;;;6.78;4.50;;;21.90;99.90;;;;;;4921119;28;20435;-72
2023/06/28 03:49:36;;;;;;;7.28;4.78;;;21.90;99.90;;;;;;4946249;28;21188;-74
2023/06/28 03:52:02;;;;;;;10.93;4.82;;;21.90;99.90;;;;;;4922233;28;20542;-75
2023/06/28 03:54:29;;;;;;;6.03;4.75;;;22.00;99.90;;;;;;4929609;28;20798;-75
2023/06/28 03:56:55;;;;;;;7.00;4.97;;;22.00;99.90;;;;;;4926153;28;20917;-75
2023/06/28 03:59:21;;;;;;;8.10;4.85;;;22.00;99.90;;;;;;4942287;28;20957;-75
2023/06/28 04:01:48;;;;;;;11.40;5.13;;;22.00;99.90;;;;;;4953350;28;20416;-75
2023/06/28 04:04:14;;;;;;;10.18;4.97;;;22.10;99.90;;;;;;4920587;28;20790;-75
2023/06/28 04:06:40;;;;;;;8.40;5.00;;;22.10;99.90;;;;;;4945240;28;20974;-73
2023/06/28 04:09:08;;;;;;;7.13;4.90;;;22.20;99.90;;;;;;4920248;28;20427;-73
2023/06/28 04:11:34;;;;;;;6.35;4.72;;;22.20;99.90;;;;;;4922844;28;20433;-73
2023/06/28 04:14:00;;;;;;;8.10;5.32;;;22.30;99.90;;;;;;4920835;28;20811;-73
2023/06/28 04:16:26;;;;;;;7.90;5.03;;;22.30;99.90;;;;;;4919116;28;20423;-73
2023/06/28 04:18:52;;;;;;;6.85;4.90;;;22.30;99.90;;;;;;4941719;28;20514;-73
2023/06/28 04:21:19;;;;;;;6.35;4.50;;;22.40;99.90;;;;;;4920212;28;20473;-73
2023/06/28 04:23:45;;;;;;;6.80;5.20;;;22.40;99.90;;;;;;4934588;28;20482;-73
2023/06/28 04:26:12;;;;;;;8.02;5.10;;;22.40;99.90;;;;;;4936943;28;21112;-73
2023/06/28 04:28:38;;;;;;;8.73;5.00;;;22.50;99.90;;;;;;4935545;28;20919;-73
2023/06/28 04:31:05;;;;;;;6.53;4.70;;;22.50;99.90;;;;;;4925776;28;20422;-73
2023/06/28 04:33:35;;;;;;;7.88;4.90;;;22.50;99.90;;;;;;4922177;28;20818;-73
2023/06/28 04:36:02;;;;;;;6.38;5.00;;;22.60;99.90;;;;;;4927125;28;20423;-73
2023/06/28 04:38:32;;;;;;;9.00;5.20;;;22.70;99.90;;;;;;4923407;28;20442;-73
2023/06/28 04:41:03;;;;;;;7.90;5.00;;;22.80;99.90;;;;;;4944490;28;21453;-73
2023/06/28 04:43:33;;;;;;;8.55;5.30;;;22.80;99.90;;;;;;4918308;28;20439;-72
2023/06/28 04:45:59;;;;;;;8.73;5.10;;;22.80;99.90;;;;;;4949009;28;20427;-72
2023/06/28 04:48:25;;;;;;;7.60;5.25;;;22.90;99.90;;;;;;4924911;28;20989;-72
2023/06/28 04:50:52;;;;;;;7.80;4.78;;;22.90;99.90;;;;;;4939428;28;21277;-72
2023/06/28 04:53:18;;;;;;;8.20;5.07;;;22.90;99.90;;;;;;4920682;28;20875;-72
2023/06/28 04:55:47;;;;;;;8.15;5.10;;;22.90;99.90;;;;;;4946488;28;20430;-72
2023/06/28 04:58:14;;;;;;;8.40;5.07;;;23.00;99.90;;;;;;4923342;28;20431;-74
2023/06/28 05:00:40;;;;;;;9.30;5.40;;;23.00;99.90;;;;;;4921578;28;20495;-74
2023/06/28 05:03:06;;;;;;;8.48;5.32;;;23.10;99.90;;;;;;4945947;28;20487;-74
2023/06/28 05:05:32;;;;;;;6.90;5.10;;;23.10;99.90;;;;;;4905640;28;20802;-74
2023/06/28 05:07:59;;;;;;;9.23;5.50;;;23.20;99.90;;;;;;4923019;28;20436;-74
2023/06/28 05:10:27;;;;;;;10.45;5.30;;;23.20;99.90;;;;;;4918588;28;20443;-74
2023/06/28 05:12:53;;;;;;;6.10;4.80;;;23.20;99.90;;;;;;4917086;28;21302;-74
2023/06/28 05:15:20;;;;;;;7.38;5.22;;;23.30;99.90;;;;;;4919238;28;20544;-74
2023/06/28 05:17:47;;;;;;;12.93;5.70;;;23.30;99.90;;;;;;4947440;28;20423;-74
2023/06/28 05:20:13;;;;;;;7.23;5.20;;;23.30;99.90;;;;;;4922100;28;20598;-74
2023/06/28 05:22:50;;;;;;;9.48;5.85;;;23.40;99.90;;;;;;4943186;28;20522;-74
2023/06/28 05:25:17;;;;;;;11.85;5.20;;;23.50;99.90;;;;;;4924216;28;20798;-74
2023/06/28 05:27:43;;;;;;;8.73;5.60;;;23.50;99.90;;;;;;4921095;28;20438;-74
2023/06/28 05:30:10;;;;;;;9.48;6.03;;;23.60;99.90;;;;;;4925080;28;20436;-74
2023/06/28 05:32:37;;;;;;;11.00;6.25;;;23.60;99.90;;;;;;4932970;28;20431;-73
2023/06/28 05:35:05;;;;;;;10.68;5.95;;;23.60;99.90;;;;;;4935826;28;20592;-73
2023/06/28 05:37:31;;;;;;;10.73;5.72;;;23.70;99.90;;;;;;4934398;28;20816;-74
2023/06/28 05:39:58;;;;;;;10.65;5.80;;;23.80;99.90;;;;;;4923633;28;22236;-73
2023/06/28 05:42:24;;;;;;;10.33;5.70;;;23.80;99.90;;;;;;4925290;28;20435;-73
2023/06/28 05:44:50;;;;;;;8.70;5.60;;;23.80;99.90;;;;;;4907250;28;20930;-73
2023/06/28 05:47:16;;;;;;;11.05;5.47;;;23.90;99.90;;;;;;4927438;28;20426;-74
2023/06/28 05:49:43;;;;;;;10.45;5.97;;;23.90;99.90;;;;;;4924397;28;20961;-74
2023/06/28 05:52:09;;;;;;;11.07;5.82;;;24.00;99.90;;;;;;4948496;28;20535;-73
2023/06/28 05:54:35;;;;;;;13.00;6.03;;;24.00;99.90;;;;;;4951208;28;20419;-74
2023/06/28 05:57:01;;;;;;;11.20;6.30;;;24.10;99.90;;;;;;4926464;28;20956;-74
2023/06/28 05:59:28;;;;;;;11.25;5.97;;;24.10;99.90;;;;;;4921005;28;20429;-73
2023/06/28 06:01:54;;;;;;;10.55;6.15;;;24.20;99.90;;;;;;4923711;28;20857;-74
2023/06/28 06:04:20;;;;;;;9.33;5.50;;;24.20;99.90;;;;;;4927795;28;20786;-74
2023/06/28 06:06:46;;;;;;;10.90;5.87;;;24.30;99.90;;;;;;4904737;28;20415;-74
2023/06/28 06:09:13;;;;;;;12.20;5.88;;;24.30;99.90;;;;;;4926999;28;20424;-75
2023/06/28 06:11:40;;;;;;;9.77;5.68;;;24.40;99.90;;;;;;4923241;28;20454;-75
2023/06/28 06:14:06;;;;;;;9.57;5.93;;;24.40;99.90;;;;;;4927698;28;20412;-75
2023/06/28 06:16:32;;;;;;;11.70;6.50;;;24.50;99.90;;;;;;4948334;28;20430;-74
2023/06/28 06:18:58;;;;;;;10.82;6.10;;;24.50;99.90;;;;;;4923315;28;20514;-75
2023/06/28 06:21:25;;;;;;;8.60;5.80;;;24.50;99.90;;;;;;4901289;28;20425;-74
2023/06/28 06:23:51;;;;;;;10.15;6.10;;;24.60;99.90;;;;;;4923721;28;20946;-74
2023/06/28 06:26:17;;;;;;;11.43;6.65;;;24.60;99.90;;;;;;4923539;28;20750;-73
2023/06/28 06:28:44;;;;;;;9.48;5.68;;;24.70;99.90;;;;;;4924690;28;20438;-74
2023/06/28 06:31:13;;;;;;;13.10;6.47;;;24.70;99.90;;;;;;4946107;28;20473;-74
2023/06/28 06:33:40;;;;;;;9.80;6.22;;;24.80;99.90;;;;;;4921573;28;21107;-74
2023/06/28 06:36:06;;;;;;;11.65;6.32;;;24.90;99.90;;;;;;4921247;28;20595;-74
2023/06/28 06:38:33;;;;;;;10.93;6.18;;;24.90;99.90;;;;;;4931377;28;20431;-74
2023/06/28 06:40:59;;;;;;;10.90;6.17;;;25.00;99.90;;;;;;4922772;28;21071;-74
2023/06/28 06:43:25;;;;;;;12.23;5.87;;;25.00;99.90;;;;;;4928282;28;21264;-74
2023/06/28 06:45:51;;;;;;;10.60;6.10;;;25.10;99.90;;;;;;4922335;28;20547;-74
2023/06/28 06:48:17;;;;;;;10.63;6.30;;;25.10;99.90;;;;;;4934986;28;20423;-75
2023/06/28 06:50:44;;;;;;;13.00;6.07;;;25.20;99.90;;;;;;4946919;28;20466;-74
2023/06/28 06:53:14;;;;;;;10.00;5.97;;;25.20;99.90;;;;;;4923397;28;20432;-75
2023/06/28 06:55:40;;;;;;;9.85;6.13;;;25.40;99.90;;;;;;4916961;28;20507;-74
2023/06/28 06:58:06;;;;;;;11.65;6.60;;;25.40;99.90;;;;;;4924666;28;20419;-74
2023/06/28 07:00:32;;;;;;;9.25;5.80;;;25.40;99.90;;;;;;4930094;28;20946;-74
2023/06/28 07:03:01;;;;;;;10.93;6.55;;;25.60;99.90;;;;;;4929234;28;20751;-74
2023/06/28 07:05:27;;;;;;;12.23;6.18;;;25.60;99.90;;;;;;4919359;28;20428;-74
2023/06/28 07:07:54;;;;;;;12.00;5.90;;;25.70;99.90;;;;;;4940167;28;20423;-74
2023/06/28 07:10:20;;;;;;;10.95;6.35;;;25.80;99.90;;;;;;4932644;28;20525;-74
2023/06/28 07:12:47;;;;;;;11.13;6.30;;;25.90;99.90;;;;;;4907051;28;20420;-73
2023/06/28 07:15:13;;;;;;;12.93;5.97;;;26.00;99.90;;;;;;4926520;28;20598;-73
2023/06/28 07:17:40;;;;;;;12.82;5.88;;;26.00;99.90;;;;;;4918183;28;21359;-73
2023/06/28 07:20:07;;;;;;;11.02;6.00;;;26.10;99.90;;;;;;4921976;28;20474;-73
2023/06/28 07:22:33;;;;;;;12.52;6.35;;;26.30;99.90;;;;;;4917457;28;20554;-73
2023/06/28 07:25:02;;;;;;;10.90;5.80;;;26.30;99.90;;;;;;4928556;28;20764;-73
2023/06/28 07:27:30;;;;;;;12.17;6.37;;;26.40;99.90;;;;;;4922763;28;20832;-76
2023/06/28 07:29:56;;;;;;;10.48;5.85;;;26.60;99.90;;;;;;4920433;28;20437;-76
2023/06/28 07:32:26;;;;;;;9.48;6.10;;;26.70;99.90;;;;;;4916982;28;21001;-75
2023/06/28 07:34:54;;;;;;;12.57;6.30;;;26.70;99.90;;;;;;4915121;28;21023;-75
2023/06/28 07:37:22;;;;;;;11.18;6.45;;;26.80;99.90;;;;;;4925072;28;20510;-74
2023/06/28 07:39:48;;;;;;;11.57;6.10;;;26.90;99.90;;;;;;4916858;28;20435;-73
2023/06/28 07:42:16;;;;;;;10.20;6.00;;;27.00;99.90;;;;;;4927311;28;20407;-73
2023/06/28 07:44:44;;;;;;;13.35;6.55;;;27.10;99.90;;;;;;4925737;28;20443;-73
2023/06/28 07:47:10;;;;;;;10.75;6.55;;;27.30;99.90;;;;;;4920456;28;20445;-72
2023/06/28 07:49:38;;;;;;;12.57;6.35;;;27.30;99.90;;;;;;4936835;28;20423;-73
2023/06/28 07:52:05;;;;;;;12.40;6.50;;;27.50;99.90;;;;;;4917724;28;20428;-73
2023/06/28 07:54:31;;;;;;;13.02;6.60;;;27.50;99.90;;;;;;4939851;28;20463;-74
2023/06/28 07:56:58;;;;;;;12.48;6.72;;;27.50;99.90;;;;;;4916604;28;21095;-73
2023/06/28 07:59:24;;;;;;;12.07;6.80;;;27.50;99.90;;;;;;4931383;28;20966;-73
2023/06/28 08:01:50;;;;;;;13.20;6.83;;;27.50;99.90;;;;;;4909665;28;20455;-73
2023/06/28 08:04:17;;;;;;;13.57;6.73;;;27.60;99.90;;;;;;4915105;28;20491;-73
2023/06/28 08:06:44;;;;;;;14.63;7.10;;;27.70;99.90;;;;;;4939644;28;20426;-73
2023/06/28 08:09:10;;;;;;;14.85;7.32;;;27.60;99.90;;;;;;4914442;28;20443;-75
2023/06/28 08:11:36;;;;;;;14.55;6.88;;;27.70;99.90;;;;;;4915895;28;20475;-75
2023/06/28 08:14:03;;;;;;;12.70;7.05;;;27.80;99.90;;;;;;4911504;28;20424;-75
2023/06/28 08:16:29;;;;;;;13.57;6.80;;;27.70;99.90;;;;;;4920349;28;20551;-74
2023/06/28 08:18:55;;;;;;;12.90;6.60;;;27.80;99.90;;;;;;4920865;28;20790;-75
2023/06/28 08:21:22;;;;;;;13.23;7.03;;;27.90;99.90;;;;;;4943145;28;20419;-73
2023/06/28 08:23:48;;;;;;;11.82;6.50;;;28.10;99.90;;;;;;4923028;28;20427;-72
2023/06/28 08:26:15;;;;;;;11.93;7.03;;;28.00;99.90;;;;;;4908864;28;20439;-72
2023/06/28 08:28:42;;;;;;;14.55;6.93;;;28.10;99.90;;;;;;4920972;28;20430;-72
2023/06/28 08:31:08;;;;;;;11.80;6.60;;;28.30;99.90;;;;;;4918901;28;22889;-72
2023/06/28 08:33:35;;;;;;;12.52;6.32;;;28.30;99.90;;;;;;4928860;28;20561;-72
2023/06/28 08:36:01;;;;;;;14.47;6.37;;;28.20;99.90;;;;;;4910407;28;20423;-72
2023/06/28 08:38:27;;;;;;;17.13;6.97;;;28.40;99.90;;;;;;4913961;28;20437;-73
2023/06/28 08:40:53;;;;;;;12.75;6.75;;;28.60;99.90;;;;;;4913529;28;20421;-73
2023/06/28 08:43:24;;;;;;;14.38;6.93;;;28.60;99.90;;;;;;4904858;28;20803;-72
2023/06/28 08:45:50;;;;;;;13.55;7.13;;;28.50;99.90;;;;;;4911054;28;20495;-72
2023/06/28 08:48:18;;;;;;;14.88;7.10;;;28.60;99.90;;;;;;4929739;28;20453;-72
2023/06/28 08:50:46;;;;;;;12.73;6.68;;;28.70;99.90;;;;;;4934217;28;21816;-72
2023/06/28 08:53:19;;;;;;;13.02;6.72;;;28.70;99.90;;;;;;4911721;28;20438;-72
2023/06/28 08:55:47;;;;;;;16.97;6.70;;;28.90;99.90;;;;;;4908393;28;20417;-73
2023/06/28 08:58:15;;;;;;;13.35;6.97;;;28.90;99.90;;;;;;4938231;28;20452;-72
2023/06/28 09:00:45;;;;;;;16.45;6.68;;;28.90;99.90;;;;;;4902696;28;20429;-72
2023/06/28 09:03:14;;;;;;;17.37;7.00;;;29.00;99.90;;;;;;4926800;28;20415;-72
2023/06/28 09:05:44;;;;;;;13.80;6.65;;;29.00;99.90;;;;;;4912125;28;20485;-72
2023/06/28 09:08:11;;;;;;;12.32;6.43;;;29.10;99.90;;;;;;4936652;28;21207;-72
2023/06/28 09:10:40;;;;;;;17.02;7.13;;;29.10;99.90;;;;;;4919062;28;20428;-72
2023/06/28 09:13:07;;;;;;;13.07;6.57;;;29.10;99.90;;;;;;4915608;28;20479;-72
2023/06/28 09:15:37;;;;;;;15.07;6.68;;;29.10;99.90;;;;;;4931208;28;20427;-73
2023/06/28 09:18:04;;;;;;;14.05;6.68;;;29.30;99.90;;;;;;4911246;28;20867;-72
2023/06/28 09:20:30;;;;;;;12.43;6.23;;;29.30;99.90;;;;;;4920472;28;20425;-72
2023/06/28 09:23:00;;;;;;;13.38;6.50;;;29.30;99.90;;;;;;4943172;28;20504;-72
2023/06/28 09:25:31;;;;;;;16.90;6.93;;;29.50;99.90;;;;;;4913336;28;20431;-72
2023/06/28 09:28:00;;;;;;;15.77;6.35;;;29.70;99.90;;;;;;4918519;28;20904;-72
2023/06/28 09:30:27;;;;;;;15.70;6.63;;;29.90;99.90;;;;;;4947888;28;20440;-72
2023/06/28 09:32:54;;;;;;;12.77;6.43;;;29.90;99.90;;;;;;4915779;28;20803;-72
2023/06/28 09:35:23;;;;;;;13.88;6.32;;;29.90;99.90;;;;;;4925299;28;20523;-72
2023/06/28 09:37:54;;;;;;;13.60;6.18;;;30.00;99.90;;;;;;4934593;28;20809;-72
2023/06/28 09:40:21;;;;;;;13.95;6.32;;;30.00;99.90;;;;;;4945391;28;20426;-72
2023/06/28 09:42:50;;;;;;;15.57;6.60;;;30.10;99.90;;;;;;4917446;28;20518;-72
2023/06/28 09:45:35;;;;;;;16.02;6.47;;;30.10;99.90;;;;;;4945518;28;21194;-72
2023/06/28 09:48:05;;;;;;;11.80;6.20;;;30.10;99.90;;;;;;4917341;28;20427;-72
2023/06/28 09:50:41;;;;;;;13.57;6.35;;;30.20;99.90;;;;;;4919236;28;20465;-73
2023/06/28 09:53:15;;;;;;;13.32;6.47;;;30.30;99.90;;;;;;4939282;28;20450;-72
2023/06/28 09:55:44;;;;;;;12.60;6.20;;;30.60;99.90;;;;;;4913410;28;20455;-73
2023/06/28 09:58:14;;;;;;;14.02;6.55;;;30.70;99.90;;;;;;4913792;28;20428;-72
2023/06/28 10:00:43;;;;;;;13.55;6.38;;;30.50;99.90;;;;;;4910312;28;20924;-72
2023/06/28 10:03:13;;;;;;;16.90;6.13;;;30.50;99.90;;;;;;4916939;28;20542;-72
2023/06/28 10:05:43;;;;;;;13.50;6.65;;;30.60;99.90;;;;;;4916766;28;20496;-72
2023/06/28 10:08:15;;;;;;;17.23;7.00;;;30.60;99.90;;;;;;4933837;28;20421;-73
2023/06/28 10:10:44;;;;;;;13.65;6.20;;;30.70;99.90;;;;;;4922372;28;20510;-72
2023/06/28 10:13:26;;;;;;;14.48;6.32;;;30.60;99.90;;;;;;4916716;28;21071;-73
2023/06/28 10:16:13;;;;;;;14.00;6.50;;;30.50;99.90;;;;;;4919409;28;20429;-72
2023/06/28 10:18:41;;;;;;;13.70;6.05;;;30.70;99.90;;;;;;4944219;28;20486;-73
2023/06/28 10:21:09;;;;;;;14.40;5.93;;;30.90;99.90;;;;;;4923056;28;20523;-73
2023/06/28 10:23:39;;;;;;;13.25;6.20;;;30.80;99.90;;;;;;4934221;28;20431;-73
2023/06/28 10:26:06;;;;;;;13.32;6.05;;;30.60;99.90;;;;;;4979251;28;20645;-72
2023/06/28 10:28:34;;;;;;;12.07;6.00;;;30.50;99.90;;;;;;4938553;28;21215;-73
2023/06/28 10:31:04;;;;;;;12.63;6.07;;;30.60;99.90;;;;;;4916892;28;20778;-73
2023/06/28 10:33:31;;;;;;;11.20;5.47;;;30.30;99.90;;;;;;4913424;28;22669;-72
2023/06/28 10:36:02;;;;;;;13.70;5.67;;;30.30;99.90;;;;;;4917311;28;20424;-73
2023/06/28 10:38:51;;;;;;;14.38;6.20;;;30.40;99.90;;;;;;4914530;28;20466;-72
2023/06/28 10:41:41;;;;;;;16.30;6.18;;;30.40;99.90;;;;;;4917777;28;20407;-73
2023/06/28 10:44:28;;;;;;;12.75;5.82;;;30.50;99.90;;;;;;4918885;28;20538;-73
2023/06/28 10:47:16;;;;;;;12.77;5.90;;;30.30;99.90;;;;;;4929101;28;20858;-72
2023/06/28 10:50:11;;;;;;;15.68;6.00;;;30.30;99.90;;;;;;4914667;28;20423;-72
2023/06/28 10:53:00;;;;;;;15.50;5.50;;;30.30;99.90;;;;;;4905670;28;20416;-73
2023/06/28 10:56:09;;;;;;;11.70;5.35;;;30.20;99.90;;;;;;4911092;28;20416;-72
2023/06/28 10:58:55;;;;;;;14.20;5.47;;;30.10;99.90;;;;;;4910894;28;20418;-72
2023/06/28 11:01:56;;;;;;;14.68;5.75;;;30.10;99.90;;;;;;4918815;28;20432;-72
2023/06/28 11:04:52;;;;;;;14.45;5.90;;;30.10;99.90;;;;;;4913444;28;20484;-72
2023/06/28 11:07:41;;;;;;;11.65;5.35;;;30.00;99.90;;;;;;4926155;28;20431;-72
2023/06/28 11:10:42;;;;;;;15.32;5.85;;;30.10;99.90;;;;;;4921164;28;20420;-72
2023/06/28 11:13:45;;;;;;;17.00;5.72;;;30.10;99.90;;;;;;4917048;28;20402;-72
2023/06/28 11:16:36;;;;;;;14.40;5.15;;;30.20;99.90;;;;;;4923711;28;20466;-72
2023/06/28 11:19:25;;;;;;;16.38;5.85;;;30.30;99.90;;;;;;4933222;28;20420;-72
2023/06/28 11:22:12;;;;;;;10.90;4.95;;;30.20;99.90;;;;;;4921975;28;20423;-72
2023/06/28 11:25:02;;;;;;;12.95;5.85;;;30.10;99.90;;;;;;4912933;28;20958;-72
2023/06/28 11:27:49;;;;;;;16.23;6.00;;;30.20;99.90;;;;;;4913782;28;20466;-72
2023/06/28 11:30:51;;;;;;;10.75;5.15;;;30.10;99.90;;;;;;4900505;28;20564;-72
2023/06/28 11:33:19;;;;;;;14.82;5.70;;;30.10;99.90;;;;;;4944704;28;20425;-72
2023/06/28 11:35:45;;;;;;;13.02;5.38;;;30.00;99.90;;;;;;4908631;28;20821;-73
2023/06/28 11:38:13;;;;;;;12.00;5.57;;;30.10;99.90;;;;;;4914556;28;20926;-73
2023/06/28 11:40:40;;;;;;;12.80;5.40;;;30.10;99.90;;;;;;4912343;28;20420;-72
2023/06/28 11:43:06;;;;;;;12.60;5.15;;;30.00;99.90;;;;;;4900934;28;20769;-73
2023/06/28 11:45:33;;;;;;;13.38;5.45;;;30.00;99.90;;;;;;4917188;28;20812;-73
2023/06/28 11:48:01;;;;;;;10.40;4.93;;;30.10;99.90;;;;;;4911470;28;20420;-73
2023/06/28 11:50:28;;;;;;;13.55;5.70;;;30.10;99.90;;;;;;4943052;28;20523;-72
2023/06/28 11:52:55;;;;;;;11.55;5.40;;;30.10;99.90;;;;;;4939468;28;20427;-72
2023/06/28 11:55:21;;;;;;;11.23;5.10;;;30.10;99.90;;;;;;4925812;28;21061;-72
2023/06/28 11:57:47;;;;;;;9.95;5.38;;;30.10;99.90;;;;;;4961161;28;20451;-73
2023/06/28 12:00:17;;;;;;;13.30;5.40;;;30.10;99.90;;;;;;4917222;28;20943;-72
2023/06/28 12:02:51;;;;;;;10.43;5.40;;;30.10;99.90;;;;;;4917038;28;20463;-73
2023/06/28 12:05:20;;;;;;;14.00;5.37;;;30.20;99.90;;;;;;4921468;28;21159;-73
2023/06/28 12:07:47;;;;;;;10.57;5.10;;;30.20;99.90;;;;;;4925701;28;20497;-73
2023/06/28 12:10:16;;;;;;;14.07;6.10;;;30.20;99.90;;;;;;4918844;28;20850;-73
2023/06/28 12:12:43;;;;;;;14.18;5.15;;;30.20;99.90;;;;;;4925095;28;21081;-73
2023/06/28 12:15:13;;;;;;;13.23;5.10;;;30.00;99.90;;;;;;4915235;28;20487;-73
2023/06/28 12:17:41;;;;;;;12.43;5.47;;;30.20;99.90;;;;;;4917253;28;20538;-73
2023/06/28 12:20:10;;;;;;;13.00;5.22;;;30.20;99.90;;;;;;4916254;28;20433;-73
2023/06/28 12:22:45;;;;;;;10.82;4.82;;;30.30;99.90;;;;;;4898760;28;20438;-72
2023/06/28 12:25:12;;;;;;;9.65;5.10;;;30.20;99.90;;;;;;4918777;28;20435;-73
2023/06/28 12:27:42;;;;;;;11.73;5.30;;;30.10;99.90;;;;;;4923371;28;20451;-73
2023/06/28 12:30:14;;;;;;;13.38;5.45;;;30.20;99.90;;;;;;4901427;28;20514;-73
2023/06/28 12:32:47;;;;;;;11.87;5.47;;;30.10;99.90;;;;;;4926388;28;20525;-73
2023/06/28 12:35:24;;;;;;;10.00;5.03;;;30.00;99.90;;;;;;4931919;28;20944;-73
2023/06/28 12:38:01;;;;;;;12.00;5.65;;;29.90;99.90;;;;;;4919380;28;20430;-72
2023/06/28 12:40:33;;;;;;;13.70;5.22;;;30.00;99.90;;;;;;4907134;28;20431;-73
2023/06/28 12:43:20;;;;;;;11.85;5.70;;;30.00;99.90;;;;;;4936887;28;20419;-72
2023/06/28 12:45:51;;;;;;;11.70;5.25;;;30.10;99.90;;;;;;4921814;28;20440;-72
2023/06/28 12:48:20;;;;;;;8.40;5.15;;;30.10;99.90;;;;;;4919509;28;20458;-72
2023/06/28 12:50:52;;;;;;;10.93;5.70;;;30.00;99.90;;;;;;4918614;28;20435;-72
2023/06/28 12:53:19;;;;;;;10.73;5.30;;;29.90;99.90;;;;;;4917578;28;21381;-72
2023/06/28 12:55:46;;;;;;;14.27;5.47;;;29.90;99.90;;;;;;4917901;28;20431;-73
2023/06/28 12:58:12;;;;;;;10.52;5.50;;;29.80;99.90;;;;;;4937561;28;21117;-73